Eldon, Iowa
Current Conditions -  °F | °C
As of 6:55 AM on Tuesday 21 Oct 2014 (Local Time) from KFFL Reporting Station
NA  
Wind Chill: 32°   Ceiling: NA
Heat Index: 37°   Visibility: NA
Dew Point: 36°   Wind: 7mph
Humidity: 93%   Direction: 40°NE
Pressure: 30.13"   Gusts: NA
Location:  40.92°N, 92.22°W
Report Text: KFFL 211155Z AUTO 04006KT 03/02 A3013 RMK AO2
Loading
Personal Weather Stations






























Interactive Weather Map
Tropical Storm Tracking
New forecast layout! Learn more

10-Day Weather Forecast

Advertisements
Track Severe Weather on mobile